sensor_id;sensor_type;location;lat;lon;timestamp;P1;durP1;ratioP1;P2;durP2;ratioP2
2972;SDS011;1496;51.404;7.232;2022-10-17T00:02:00;9.50;;;5.63;;
2972;SDS011;1496;51.404;7.232;2022-10-17T00:04:26;6.40;;;5.20;;
2972;SDS011;1496;51.404;7.232;2022-10-17T00:06:51;8.47;;;6.27;;
2972;SDS011;1496;51.404;7.232;2022-10-17T00:09:17;12.53;;;5.77;;
2972;SDS011;1496;51.404;7.232;2022-10-17T00:11:42;6.30;;;5.17;;
2972;SDS011;1496;51.404;7.232;2022-10-17T00:14:08;6.57;;;5.87;;
2972;SDS011;1496;51.404;7.232;2022-10-17T00:16:34;8.30;;;5.70;;
2972;SDS011;1496;51.404;7.232;2022-10-17T00:19:02;7.80;;;5.30;;
2972;SDS011;1496;51.404;7.232;2022-10-17T00:21:29;10.03;;;4.93;;
2972;SDS011;1496;51.404;7.232;2022-10-17T00:23:55;7.90;;;5.30;;
2972;SDS011;1496;51.404;7.232;2022-10-17T00:26:20;6.50;;;5.80;;
2972;SDS011;1496;51.404;7.232;2022-10-17T00:28:47;7.23;;;5.00;;
2972;SDS011;1496;51.404;7.232;2022-10-17T00:31:15;8.07;;;6.13;;
2972;SDS011;1496;51.404;7.232;2022-10-17T00:33:42;6.87;;;5.20;;
2972;SDS011;1496;51.404;7.232;2022-10-17T00:36:26;5.70;;;5.10;;
2972;SDS011;1496;51.404;7.232;2022-10-17T00:38:53;7.73;;;5.17;;
2972;SDS011;1496;51.404;7.232;2022-10-17T00:41:29;6.47;;;5.87;;
2972;SDS011;1496;51.404;7.232;2022-10-17T00:43:57;6.70;;;5.23;;
2972;SDS011;1496;51.404;7.232;2022-10-17T00:46:34;5.03;;;4.63;;
2972;SDS011;1496;51.404;7.232;2022-10-17T00:49:09;8.53;;;4.93;;
2972;SDS011;1496;51.404;7.232;2022-10-17T00:51:46;10.90;;;5.43;;
2972;SDS011;1496;51.404;7.232;2022-10-17T00:54:17;8.97;;;4.50;;
2972;SDS011;1496;51.404;7.232;2022-10-17T00:56:46;9.30;;;6.47;;
2972;SDS011;1496;51.404;7.232;2022-10-17T00:59:12;7.33;;;5.87;;
2972;SDS011;1496;51.404;7.232;2022-10-17T01:01:41;6.40;;;5.40;;
2972;SDS011;1496;51.404;7.232;2022-10-17T01:04:12;6.10;;;5.50;;
2972;SDS011;1496;51.404;7.232;2022-10-17T01:06:38;6.60;;;5.30;;
2972;SDS011;1496;51.404;7.232;2022-10-17T01:09:04;11.50;;;5.90;;
2972;SDS011;1496;51.404;7.232;2022-10-17T01:11:36;9.47;;;5.87;;
2972;SDS011;1496;51.404;7.232;2022-10-17T01:14:23;9.47;;;5.37;;
2972;SDS011;1496;51.404;7.232;2022-10-17T01:17:00;5.83;;;5.20;;
2972;SDS011;1496;51.404;7.232;2022-10-17T01:22:33;8.17;;;4.90;;
2972;SDS011;1496;51.404;7.232;2022-10-17T01:28:00;8.23;;;4.70;;
2972;SDS011;1496;51.404;7.232;2022-10-17T01:30:58;8.73;;;4.67;;
2972;SDS011;1496;51.404;7.232;2022-10-17T01:33:43;6.93;;;5.17;;
2972;SDS011;1496;51.404;7.232;2022-10-17T01:36:21;9.00;;;4.90;;
2972;SDS011;1496;51.404;7.232;2022-10-17T01:42:10;5.00;;;4.30;;
2972;SDS011;1496;51.404;7.232;2022-10-17T01:47:29;7.87;;;4.70;;
2972;SDS011;1496;51.404;7.232;2022-10-17T01:50:08;8.30;;;5.27;;
2972;SDS011;1496;51.404;7.232;2022-10-17T01:52:40;9.53;;;5.50;;
2972;SDS011;1496;51.404;7.232;2022-10-17T01:55:17;6.10;;;4.10;;
2972;SDS011;1496;51.404;7.232;2022-10-17T01:57:50;6.67;;;5.17;;
2972;SDS011;1496;51.404;7.232;2022-10-17T02:00:21;7.80;;;4.87;;
2972;SDS011;1496;51.404;7.232;2022-10-17T02:02:59;8.33;;;5.17;;
2972;SDS011;1496;51.404;7.232;2022-10-17T02:05:30;7.03;;;5.50;;
2972;SDS011;1496;51.404;7.232;2022-10-17T02:08:00;6.60;;;4.27;;
2972;SDS011;1496;51.404;7.232;2022-10-17T02:10:38;9.00;;;5.40;;
2972;SDS011;1496;51.404;7.232;2022-10-17T02:18:53;7.23;;;5.07;;
2972;SDS011;1496;51.404;7.232;2022-10-17T02:22:02;12.93;;;5.10;;
2972;SDS011;1496;51.404;7.232;2022-10-17T02:29:36;4.60;;;4.20;;
2972;SDS011;1496;51.404;7.232;2022-10-17T02:32:33;6.70;;;4.30;;
2972;SDS011;1496;51.404;7.232;2022-10-17T02:35:01;8.47;;;5.00;;
2972;SDS011;1496;51.404;7.232;2022-10-17T02:37:35;7.67;;;5.03;;
2972;SDS011;1496;51.404;7.232;2022-10-17T02:40:02;8.07;;;4.50;;
2972;SDS011;1496;51.404;7.232;2022-10-17T02:42:30;6.73;;;4.50;;
2972;SDS011;1496;51.404;7.232;2022-10-17T02:44:58;5.47;;;4.53;;
2972;SDS011;1496;51.404;7.232;2022-10-17T02:47:26;11.70;;;5.60;;
2972;SDS011;1496;51.404;7.232;2022-10-17T02:50:10;6.80;;;4.70;;
2972;SDS011;1496;51.404;7.232;2022-10-17T02:55:11;9.93;;;4.50;;
2972;SDS011;1496;51.404;7.232;2022-10-17T02:57:51;4.50;;;4.00;;
2972;SDS011;1496;51.404;7.232;2022-10-17T03:00:19;10.97;;;5.03;;
2972;SDS011;1496;51.404;7.232;2022-10-17T03:02:49;5.10;;;4.30;;
2972;SDS011;1496;51.404;7.232;2022-10-17T03:05:20;8.20;;;4.40;;
2972;SDS011;1496;51.404;7.232;2022-10-17T03:07:48;7.90;;;4.53;;
2972;SDS011;1496;51.404;7.232;2022-10-17T03:10:17;6.67;;;4.60;;
2972;SDS011;1496;51.404;7.232;2022-10-17T03:12:43;5.57;;;4.80;;
2972;SDS011;1496;51.404;7.232;2022-10-17T03:15:10;8.13;;;5.20;;
2972;SDS011;1496;51.404;7.232;2022-10-17T03:17:37;7.30;;;4.80;;
2972;SDS011;1496;51.404;7.232;2022-10-17T03:20:03;8.80;;;5.10;;
2972;SDS011;1496;51.404;7.232;2022-10-17T03:22:30;9.33;;;4.90;;
2972;SDS011;1496;51.404;7.232;2022-10-17T03:24:57;6.10;;;4.90;;
2972;SDS011;1496;51.404;7.232;2022-10-17T03:27:23;10.10;;;5.20;;
2972;SDS011;1496;51.404;7.232;2022-10-17T03:29:49;6.10;;;4.23;;
2972;SDS011;1496;51.404;7.232;2022-10-17T03:32:15;22.47;;;4.90;;
2972;SDS011;1496;51.404;7.232;2022-10-17T03:34:40;5.30;;;4.40;;
2972;SDS011;1496;51.404;7.232;2022-10-17T03:37:06;8.00;;;5.13;;
2972;SDS011;1496;51.404;7.232;2022-10-17T03:39:34;5.53;;;4.20;;
2972;SDS011;1496;51.404;7.232;2022-10-17T03:41:59;6.63;;;4.60;;
2972;SDS011;1496;51.404;7.232;2022-10-17T03:44:25;7.63;;;4.67;;
2972;SDS011;1496;51.404;7.232;2022-10-17T03:46:53;5.17;;;4.50;;
2972;SDS011;1496;51.404;7.232;2022-10-17T03:49:19;12.10;;;4.27;;
2972;SDS011;1496;51.404;7.232;2022-10-17T03:51:45;5.87;;;4.17;;
2972;SDS011;1496;51.404;7.232;2022-10-17T03:54:13;7.17;;;5.10;;
2972;SDS011;1496;51.404;7.232;2022-10-17T03:56:38;4.83;;;4.37;;
2972;SDS011;1496;51.404;7.232;2022-10-17T03:59:11;5.20;;;4.20;;
2972;SDS011;1496;51.404;7.232;2022-10-17T04:01:38;6.97;;;4.83;;
2972;SDS011;1496;51.404;7.232;2022-10-17T04:04:05;4.10;;;3.70;;
2972;SDS011;1496;51.404;7.232;2022-10-17T04:06:33;5.67;;;4.27;;
2972;SDS011;1496;51.404;7.232;2022-10-17T04:08:59;13.60;;;4.83;;
2972;SDS011;1496;51.404;7.232;2022-10-17T04:11:32;6.10;;;4.80;;
2972;SDS011;1496;51.404;7.232;2022-10-17T04:13:59;8.17;;;4.20;;
2972;SDS011;1496;51.404;7.232;2022-10-17T04:16:25;4.73;;;4.23;;
2972;SDS011;1496;51.404;7.232;2022-10-17T04:18:58;11.80;;;4.87;;
2972;SDS011;1496;51.404;7.232;2022-10-17T04:21:26;10.07;;;4.50;;
2972;SDS011;1496;51.404;7.232;2022-10-17T04:23:54;11.30;;;4.60;;
2972;SDS011;1496;51.404;7.232;2022-10-17T04:26:34;5.27;;;4.60;;
2972;SDS011;1496;51.404;7.232;2022-10-17T04:29:00;5.33;;;4.03;;
2972;SDS011;1496;51.404;7.232;2022-10-17T04:31:26;6.07;;;4.90;;
2972;SDS011;1496;51.404;7.232;2022-10-17T04:34:15;9.07;;;4.90;;
2972;SDS011;1496;51.404;7.232;2022-10-17T04:36:41;7.30;;;4.23;;
2972;SDS011;1496;51.404;7.232;2022-10-17T04:39:07;7.03;;;4.23;;
2972;SDS011;1496;51.404;7.232;2022-10-17T04:41:34;6.00;;;5.40;;
2972;SDS011;1496;51.404;7.232;2022-10-17T04:44:00;8.37;;;4.13;;
2972;SDS011;1496;51.404;7.232;2022-10-17T04:46:27;4.90;;;4.40;;
2972;SDS011;1496;51.404;7.232;2022-10-17T04:48:53;6.20;;;4.50;;
2972;SDS011;1496;51.404;7.232;2022-10-17T04:51:20;7.37;;;4.50;;
2972;SDS011;1496;51.404;7.232;2022-10-17T04:54:04;13.93;;;5.00;;
2972;SDS011;1496;51.404;7.232;2022-10-17T04:56:31;7.43;;;4.57;;
2972;SDS011;1496;51.404;7.232;2022-10-17T04:58:57;9.23;;;4.60;;
2972;SDS011;1496;51.404;7.232;2022-10-17T05:01:24;9.70;;;4.37;;
2972;SDS011;1496;51.404;7.232;2022-10-17T05:03:51;8.57;;;5.10;;
2972;SDS011;1496;51.404;7.232;2022-10-17T05:06:21;4.83;;;4.43;;
2972;SDS011;1496;51.404;7.232;2022-10-17T05:09:07;6.83;;;4.80;;
2972;SDS011;1496;51.404;7.232;2022-10-17T05:11:33;7.03;;;3.73;;
2972;SDS011;1496;51.404;7.232;2022-10-17T05:14:00;7.40;;;4.30;;
2972;SDS011;1496;51.404;7.232;2022-10-17T05:16:29;6.57;;;4.00;;
2972;SDS011;1496;51.404;7.232;2022-10-17T05:18:56;8.10;;;3.50;;
2972;SDS011;1496;51.404;7.232;2022-10-17T05:21:25;6.40;;;4.73;;
2972;SDS011;1496;51.404;7.232;2022-10-17T05:23:52;4.87;;;4.10;;
2972;SDS011;1496;51.404;7.232;2022-10-17T05:26:19;4.80;;;3.97;;
2972;SDS011;1496;51.404;7.232;2022-10-17T05:28:51;8.97;;;4.73;;
2972;SDS011;1496;51.404;7.232;2022-10-17T05:31:21;5.10;;;4.40;;
2972;SDS011;1496;51.404;7.232;2022-10-17T05:33:47;5.73;;;4.43;;
2972;SDS011;1496;51.404;7.232;2022-10-17T05:36:13;5.43;;;4.73;;
2972;SDS011;1496;51.404;7.232;2022-10-17T05:38:39;6.97;;;4.40;;
2972;SDS011;1496;51.404;7.232;2022-10-17T05:41:05;6.63;;;4.30;;
2972;SDS011;1496;51.404;7.232;2022-10-17T05:43:32;10.63;;;4.73;;
2972;SDS011;1496;51.404;7.232;2022-10-17T05:45:58;6.03;;;3.77;;
2972;SDS011;1496;51.404;7.232;2022-10-17T05:48:27;7.47;;;4.20;;
2972;SDS011;1496;51.404;7.232;2022-10-17T05:50:57;7.23;;;4.47;;
2972;SDS011;1496;51.404;7.232;2022-10-17T05:53:24;7.27;;;4.63;;
2972;SDS011;1496;51.404;7.232;2022-10-17T05:55:55;8.13;;;4.20;;
2972;SDS011;1496;51.404;7.232;2022-10-17T05:58:22;7.70;;;4.93;;
2972;SDS011;1496;51.404;7.232;2022-10-17T06:00:56;6.43;;;4.53;;
2972;SDS011;1496;51.404;7.232;2022-10-17T06:03:26;6.10;;;4.20;;
2972;SDS011;1496;51.404;7.232;2022-10-17T06:05:52;10.43;;;4.53;;
2972;SDS011;1496;51.404;7.232;2022-10-17T06:08:18;7.90;;;4.30;;
2972;SDS011;1496;51.404;7.232;2022-10-17T06:10:48;11.63;;;6.47;;
2972;SDS011;1496;51.404;7.232;2022-10-17T06:13:17;4.30;;;3.90;;
2972;SDS011;1496;51.404;7.232;2022-10-17T06:15:46;6.90;;;4.60;;
2972;SDS011;1496;51.404;7.232;2022-10-17T06:18:27;9.50;;;4.57;;
2972;SDS011;1496;51.404;7.232;2022-10-17T06:21:26;13.60;;;4.30;;
2972;SDS011;1496;51.404;7.232;2022-10-17T06:24:01;4.80;;;3.87;;
2972;SDS011;1496;51.404;7.232;2022-10-17T06:26:33;4.77;;;3.80;;
2972;SDS011;1496;51.404;7.232;2022-10-17T06:28:59;7.40;;;4.23;;
2972;SDS011;1496;51.404;7.232;2022-10-17T06:31:28;8.97;;;4.83;;
2972;SDS011;1496;51.404;7.232;2022-10-17T06:33:54;5.67;;;4.43;;
2972;SDS011;1496;51.404;7.232;2022-10-17T06:36:21;10.87;;;4.43;;
2972;SDS011;1496;51.404;7.232;2022-10-17T06:38:48;12.20;;;4.20;;
2972;SDS011;1496;51.404;7.232;2022-10-17T06:41:22;7.30;;;4.20;;
2972;SDS011;1496;51.404;7.232;2022-10-17T06:43:51;7.50;;;4.23;;
2972;SDS011;1496;51.404;7.232;2022-10-17T06:46:35;9.40;;;4.43;;
2972;SDS011;1496;51.404;7.232;2022-10-17T06:49:03;8.03;;;4.47;;
2972;SDS011;1496;51.404;7.232;2022-10-17T06:52:01;9.13;;;4.20;;
2972;SDS011;1496;51.404;7.232;2022-10-17T06:54:39;5.40;;;4.73;;
2972;SDS011;1496;51.404;7.232;2022-10-17T06:57:17;5.13;;;4.63;;
2972;SDS011;1496;51.404;7.232;2022-10-17T07:00:04;4.40;;;4.00;;
2972;SDS011;1496;51.404;7.232;2022-10-17T07:02:37;7.47;;;4.80;;
2972;SDS011;1496;51.404;7.232;2022-10-17T07:05:03;7.60;;;4.40;;
2972;SDS011;1496;51.404;7.232;2022-10-17T07:07:30;8.27;;;4.07;;
2972;SDS011;1496;51.404;7.232;2022-10-17T07:09:58;8.93;;;4.80;;
2972;SDS011;1496;51.404;7.232;2022-10-17T07:12:24;7.30;;;4.60;;
2972;SDS011;1496;51.404;7.232;2022-10-17T07:14:50;13.53;;;4.77;;
2972;SDS011;1496;51.404;7.232;2022-10-17T07:17:16;8.00;;;4.50;;
2972;SDS011;1496;51.404;7.232;2022-10-17T07:19:43;6.20;;;3.90;;
2972;SDS011;1496;51.404;7.232;2022-10-17T07:22:10;11.37;;;4.50;;
2972;SDS011;1496;51.404;7.232;2022-10-17T07:24:37;6.90;;;4.80;;
2972;SDS011;1496;51.404;7.232;2022-10-17T07:27:13;5.77;;;4.87;;
2972;SDS011;1496;51.404;7.232;2022-10-17T07:29:39;5.87;;;4.17;;
2972;SDS011;1496;51.404;7.232;2022-10-17T07:32:09;8.63;;;4.40;;
2972;SDS011;1496;51.404;7.232;2022-10-17T07:34:37;13.40;;;4.63;;
2972;SDS011;1496;51.404;7.232;2022-10-17T07:37:05;13.40;;;3.77;;
2972;SDS011;1496;51.404;7.232;2022-10-17T07:39:34;8.23;;;4.50;;
2972;SDS011;1496;51.404;7.232;2022-10-17T07:42:01;6.23;;;3.83;;
2972;SDS011;1496;51.404;7.232;2022-10-17T07:44:37;6.43;;;4.50;;
2972;SDS011;1496;51.404;7.232;2022-10-17T07:47:03;7.50;;;3.77;;
2972;SDS011;1496;51.404;7.232;2022-10-17T07:49:32;8.17;;;4.70;;
2972;SDS011;1496;51.404;7.232;2022-10-17T07:52:35;9.50;;;5.00;;
2972;SDS011;1496;51.404;7.232;2022-10-17T07:55:00;6.77;;;4.40;;
2972;SDS011;1496;51.404;7.232;2022-10-17T07:57:25;15.10;;;3.73;;
2972;SDS011;1496;51.404;7.232;2022-10-17T07:59:51;9.53;;;4.30;;
2972;SDS011;1496;51.404;7.232;2022-10-17T08:02:23;10.43;;;4.27;;
2972;SDS011;1496;51.404;7.232;2022-10-17T08:04:50;9.00;;;4.30;;
2972;SDS011;1496;51.404;7.232;2022-10-17T08:07:16;9.70;;;4.83;;
2972;SDS011;1496;51.404;7.232;2022-10-17T08:09:43;13.50;;;4.70;;
2972;SDS011;1496;51.404;7.232;2022-10-17T08:12:10;11.57;;;4.87;;
2972;SDS011;1496;51.404;7.232;2022-10-17T08:14:36;9.80;;;4.10;;
2972;SDS011;1496;51.404;7.232;2022-10-17T08:17:03;11.07;;;4.53;;
2972;SDS011;1496;51.404;7.232;2022-10-17T08:19:29;14.97;;;4.00;;
2972;SDS011;1496;51.404;7.232;2022-10-17T08:21:57;14.33;;;4.20;;
2972;SDS011;1496;51.404;7.232;2022-10-17T08:24:23;16.37;;;4.10;;
2972;SDS011;1496;51.404;7.232;2022-10-17T08:26:49;13.47;;;3.80;;
2972;SDS011;1496;51.404;7.232;2022-10-17T08:29:17;16.30;;;4.60;;
2972;SDS011;1496;51.404;7.232;2022-10-17T08:31:43;17.43;;;4.07;;
2972;SDS011;1496;51.404;7.232;2022-10-17T08:34:09;16.03;;;4.60;;
2972;SDS011;1496;51.404;7.232;2022-10-17T08:36:35;15.87;;;4.20;;
2972;SDS011;1496;51.404;7.232;2022-10-17T08:39:01;26.37;;;4.40;;
2972;SDS011;1496;51.404;7.232;2022-10-17T08:41:43;22.70;;;4.83;;
2972;SDS011;1496;51.404;7.232;2022-10-17T08:47:00;19.67;;;4.10;;
2972;SDS011;1496;51.404;7.232;2022-10-17T08:49:35;19.90;;;4.20;;
2972;SDS011;1496;51.404;7.232;2022-10-17T08:52:03;25.40;;;4.20;;
2972;SDS011;1496;51.404;7.232;2022-10-17T08:54:41;44.53;;;5.80;;
2972;SDS011;1496;51.404;7.232;2022-10-17T08:57:13;24.30;;;3.73;;
2972;SDS011;1496;51.404;7.232;2022-10-17T08:59:40;26.47;;;4.00;;
2972;SDS011;1496;51.404;7.232;2022-10-17T09:10:18;27.43;;;4.13;;
2972;SDS011;1496;51.404;7.232;2022-10-17T09:16:17;33.10;;;3.80;;
2972;SDS011;1496;51.404;7.232;2022-10-17T09:18:57;27.33;;;4.53;;
2972;SDS011;1496;51.404;7.232;2022-10-17T09:24:18;26.53;;;4.17;;
2972;SDS011;1496;51.404;7.232;2022-10-17T09:26:51;31.03;;;4.63;;
2972;SDS011;1496;51.404;7.232;2022-10-17T09:29:20;27.87;;;4.43;;
2972;SDS011;1496;51.404;7.232;2022-10-17T09:32:10;30.53;;;4.33;;
2972;SDS011;1496;51.404;7.232;2022-10-17T09:34:41;29.37;;;4.53;;
2972;SDS011;1496;51.404;7.232;2022-10-17T09:37:18;30.93;;;3.80;;
2972;SDS011;1496;51.404;7.232;2022-10-17T09:39:57;31.90;;;4.37;;
2972;SDS011;1496;51.404;7.232;2022-10-17T09:42:25;31.77;;;4.87;;
2972;SDS011;1496;51.404;7.232;2022-10-17T09:50:49;34.67;;;4.07;;
2972;SDS011;1496;51.404;7.232;2022-10-17T09:53:22;26.23;;;3.93;;
2972;SDS011;1496;51.404;7.232;2022-10-17T09:55:55;31.40;;;3.97;;
2972;SDS011;1496;51.404;7.232;2022-10-17T09:58:23;32.37;;;4.03;;
2972;SDS011;1496;51.404;7.232;2022-10-17T10:01:15;24.20;;;4.00;;
2972;SDS011;1496;51.404;7.232;2022-10-17T10:04:11;24.03;;;3.87;;
2972;SDS011;1496;51.404;7.232;2022-10-17T10:06:39;31.43;;;4.27;;
2972;SDS011;1496;51.404;7.232;2022-10-17T10:09:24;24.77;;;3.43;;
2972;SDS011;1496;51.404;7.232;2022-10-17T10:11:54;25.70;;;4.23;;
2972;SDS011;1496;51.404;7.232;2022-10-17T10:14:23;25.70;;;4.20;;
2972;SDS011;1496;51.404;7.232;2022-10-17T10:16:59;31.00;;;4.30;;
2972;SDS011;1496;51.404;7.232;2022-10-17T10:19:48;23.00;;;3.57;;
2972;SDS011;1496;51.404;7.232;2022-10-17T10:22:15;30.77;;;4.17;;
2972;SDS011;1496;51.404;7.232;2022-10-17T10:24:42;23.10;;;4.40;;
2972;SDS011;1496;51.404;7.232;2022-10-17T10:27:30;26.93;;;4.20;;
2972;SDS011;1496;51.404;7.232;2022-10-17T10:29:56;27.10;;;4.00;;
2972;SDS011;1496;51.404;7.232;2022-10-17T10:32:23;26.27;;;4.33;;
2972;SDS011;1496;51.404;7.232;2022-10-17T10:34:55;26.37;;;3.73;;
2972;SDS011;1496;51.404;7.232;2022-10-17T10:37:25;31.17;;;4.27;;
2972;SDS011;1496;51.404;7.232;2022-10-17T10:39:58;29.00;;;4.10;;
2972;SDS011;1496;51.404;7.232;2022-10-17T10:42:27;27.63;;;4.57;;
2972;SDS011;1496;51.404;7.232;2022-10-17T10:44:55;26.60;;;4.30;;
2972;SDS011;1496;51.404;7.232;2022-10-17T10:47:24;27.40;;;4.13;;
2972;SDS011;1496;51.404;7.232;2022-10-17T10:50:05;28.80;;;3.93;;
2972;SDS011;1496;51.404;7.232;2022-10-17T10:52:45;19.80;;;3.90;;
2972;SDS011;1496;51.404;7.232;2022-10-17T10:55:22;19.47;;;4.27;;
2972;SDS011;1496;51.404;7.232;2022-10-17T10:57:55;20.87;;;4.70;;
2972;SDS011;1496;51.404;7.232;2022-10-17T11:00:24;19.87;;;4.53;;
2972;SDS011;1496;51.404;7.232;2022-10-17T11:03:38;24.97;;;3.87;;
2972;SDS011;1496;51.404;7.232;2022-10-17T11:05:48;20.70;;;3.90;;
2972;SDS011;1496;51.404;7.232;2022-10-17T11:08:35;19.40;;;3.67;;
2972;SDS011;1496;51.404;7.232;2022-10-17T11:14:02;16.27;;;4.23;;
2972;SDS011;1496;51.404;7.232;2022-10-17T11:16:41;14.47;;;4.33;;
2972;SDS011;1496;51.404;7.232;2022-10-17T11:19:39;15.33;;;4.17;;
2972;SDS011;1496;51.404;7.232;2022-10-17T11:22:27;13.07;;;5.13;;
2972;SDS011;1496;51.404;7.232;2022-10-17T11:25:05;13.07;;;3.97;;
2972;SDS011;1496;51.404;7.232;2022-10-17T11:27:56;20.37;;;3.60;;
2972;SDS011;1496;51.404;7.232;2022-10-17T11:30:22;17.87;;;3.80;;
2972;SDS011;1496;51.404;7.232;2022-10-17T11:32:58;20.70;;;4.10;;
2972;SDS011;1496;51.404;7.232;2022-10-17T11:35:27;16.60;;;4.00;;
2972;SDS011;1496;51.404;7.232;2022-10-17T11:38:24;16.23;;;3.70;;
2972;SDS011;1496;51.404;7.232;2022-10-17T11:40:56;13.43;;;4.43;;
2972;SDS011;1496;51.404;7.232;2022-10-17T11:45:57;17.50;;;4.03;;
2972;SDS011;1496;51.404;7.232;2022-10-17T11:52:06;5.70;;;4.00;;
2972;SDS011;1496;51.404;7.232;2022-10-17T11:54:57;4.40;;;3.90;;
2972;SDS011;1496;51.404;7.232;2022-10-17T12:00:24;7.10;;;4.00;;
2972;SDS011;1496;51.404;7.232;2022-10-17T12:12:02;10.40;;;4.57;;
2972;SDS011;1496;51.404;7.232;2022-10-17T12:17:05;6.00;;;4.20;;
2972;SDS011;1496;51.404;7.232;2022-10-17T12:19:51;9.37;;;3.90;;
2972;SDS011;1496;51.404;7.232;2022-10-17T12:22:18;7.63;;;3.73;;
2972;SDS011;1496;51.404;7.232;2022-10-17T12:24:54;6.50;;;3.70;;
2972;SDS011;1496;51.404;7.232;2022-10-17T12:27:31;8.87;;;4.63;;
2972;SDS011;1496;51.404;7.232;2022-10-17T12:32:38;12.20;;;4.47;;
2972;SDS011;1496;51.404;7.232;2022-10-17T12:35:19;6.57;;;4.10;;
2972;SDS011;1496;51.404;7.232;2022-10-17T12:45:45;9.70;;;4.40;;
2972;SDS011;1496;51.404;7.232;2022-10-17T12:51:10;11.73;;;4.20;;
2972;SDS011;1496;51.404;7.232;2022-10-17T12:53:56;14.60;;;4.73;;
2972;SDS011;1496;51.404;7.232;2022-10-17T12:56:46;16.57;;;4.37;;
2972;SDS011;1496;51.404;7.232;2022-10-17T12:59:14;9.10;;;4.30;;
2972;SDS011;1496;51.404;7.232;2022-10-17T13:01:52;9.03;;;4.57;;
2972;SDS011;1496;51.404;7.232;2022-10-17T13:04:23;9.27;;;4.13;;
2972;SDS011;1496;51.404;7.232;2022-10-17T13:06:52;13.73;;;3.90;;
2972;SDS011;1496;51.404;7.232;2022-10-17T13:11:50;14.33;;;4.80;;
2972;SDS011;1496;51.404;7.232;2022-10-17T13:14:18;13.67;;;4.40;;
2972;SDS011;1496;51.404;7.232;2022-10-17T13:17:02;12.80;;;4.43;;
2972;SDS011;1496;51.404;7.232;2022-10-17T13:19:31;15.60;;;4.13;;
2972;SDS011;1496;51.404;7.232;2022-10-17T13:22:09;15.23;;;4.00;;
2972;SDS011;1496;51.404;7.232;2022-10-17T13:24:39;20.37;;;4.43;;
2972;SDS011;1496;51.404;7.232;2022-10-17T13:27:18;22.10;;;4.83;;
2972;SDS011;1496;51.404;7.232;2022-10-17T13:29:56;19.57;;;4.13;;
2972;SDS011;1496;51.404;7.232;2022-10-17T13:32:23;20.20;;;4.73;;
2972;SDS011;1496;51.404;7.232;2022-10-17T13:35:10;21.80;;;4.97;;
2972;SDS011;1496;51.404;7.232;2022-10-17T13:37:38;24.60;;;4.43;;
2972;SDS011;1496;51.404;7.232;2022-10-17T13:40:06;22.27;;;4.10;;
2972;SDS011;1496;51.404;7.232;2022-10-17T13:42:43;24.63;;;5.10;;
2972;SDS011;1496;51.404;7.232;2022-10-17T13:45:31;23.60;;;4.60;;
2972;SDS011;1496;51.404;7.232;2022-10-17T13:47:59;24.43;;;4.60;;
2972;SDS011;1496;51.404;7.232;2022-10-17T13:50:35;26.33;;;4.83;;
2972;SDS011;1496;51.404;7.232;2022-10-17T13:53:28;22.90;;;4.43;;
2972;SDS011;1496;51.404;7.232;2022-10-17T13:55:58;24.63;;;4.60;;
2972;SDS011;1496;51.404;7.232;2022-10-17T13:58:25;24.60;;;4.53;;
2972;SDS011;1496;51.404;7.232;2022-10-17T14:00:54;22.43;;;4.80;;
2972;SDS011;1496;51.404;7.232;2022-10-17T14:03:20;21.63;;;4.73;;
2972;SDS011;1496;51.404;7.232;2022-10-17T14:08:33;21.60;;;4.60;;
2972;SDS011;1496;51.404;7.232;2022-10-17T14:11:00;20.43;;;4.00;;
2972;SDS011;1496;51.404;7.232;2022-10-17T14:13:27;17.50;;;4.00;;
2972;SDS011;1496;51.404;7.232;2022-10-17T14:15:58;23.33;;;4.70;;
2972;SDS011;1496;51.404;7.232;2022-10-17T14:18:28;23.00;;;5.00;;
2972;SDS011;1496;51.404;7.232;2022-10-17T14:20:56;25.00;;;5.03;;
2972;SDS011;1496;51.404;7.232;2022-10-17T14:23:29;21.33;;;5.20;;
2972;SDS011;1496;51.404;7.232;2022-10-17T14:28:34;21.63;;;4.50;;
2972;SDS011;1496;51.404;7.232;2022-10-17T14:33:41;19.33;;;5.27;;
2972;SDS011;1496;51.404;7.232;2022-10-17T14:36:09;24.50;;;4.80;;
2972;SDS011;1496;51.404;7.232;2022-10-17T14:38:34;20.73;;;5.00;;
2972;SDS011;1496;51.404;7.232;2022-10-17T14:41:08;21.97;;;5.00;;
2972;SDS011;1496;51.404;7.232;2022-10-17T14:43:38;20.40;;;5.20;;
2972;SDS011;1496;51.404;7.232;2022-10-17T14:46:04;21.10;;;5.47;;
2972;SDS011;1496;51.404;7.232;2022-10-17T14:49:15;18.97;;;4.70;;
2972;SDS011;1496;51.404;7.232;2022-10-17T14:54:37;19.53;;;5.00;;
2972;SDS011;1496;51.404;7.232;2022-10-17T14:59:48;22.93;;;4.50;;
2972;SDS011;1496;51.404;7.232;2022-10-17T15:02:14;22.20;;;5.30;;
2972;SDS011;1496;51.404;7.232;2022-10-17T15:04:40;19.13;;;4.80;;
2972;SDS011;1496;51.404;7.232;2022-10-17T15:07:06;21.47;;;5.10;;
2972;SDS011;1496;51.404;7.232;2022-10-17T15:09:36;21.63;;;5.20;;
2972;SDS011;1496;51.404;7.232;2022-10-17T15:12:03;17.93;;;4.57;;
2972;SDS011;1496;51.404;7.232;2022-10-17T15:14:35;20.97;;;4.50;;
2972;SDS011;1496;51.404;7.232;2022-10-17T15:17:01;22.37;;;4.87;;
2972;SDS011;1496;51.404;7.232;2022-10-17T15:19:27;19.43;;;4.90;;
2972;SDS011;1496;51.404;7.232;2022-10-17T15:21:52;19.40;;;4.67;;
2972;SDS011;1496;51.404;7.232;2022-10-17T15:24:18;26.77;;;5.13;;
2972;SDS011;1496;51.404;7.232;2022-10-17T15:26:44;21.90;;;4.17;;
2972;SDS011;1496;51.404;7.232;2022-10-17T15:29:13;21.10;;;5.13;;
2972;SDS011;1496;51.404;7.232;2022-10-17T15:31:40;23.40;;;4.50;;
2972;SDS011;1496;51.404;7.232;2022-10-17T15:34:05;21.17;;;5.07;;
2972;SDS011;1496;51.404;7.232;2022-10-17T15:36:34;26.20;;;6.50;;
2972;SDS011;1496;51.404;7.232;2022-10-17T15:39:04;19.93;;;4.60;;
2972;SDS011;1496;51.404;7.232;2022-10-17T15:41:30;18.90;;;4.67;;
2972;SDS011;1496;51.404;7.232;2022-10-17T15:43:56;19.67;;;4.90;;
2972;SDS011;1496;51.404;7.232;2022-10-17T15:46:23;18.27;;;4.90;;
2972;SDS011;1496;51.404;7.232;2022-10-17T15:48:51;14.33;;;5.40;;
2972;SDS011;1496;51.404;7.232;2022-10-17T15:51:17;13.17;;;5.20;;
2972;SDS011;1496;51.404;7.232;2022-10-17T15:53:43;10.87;;;4.60;;
2972;SDS011;1496;51.404;7.232;2022-10-17T15:56:14;10.83;;;4.50;;
2972;SDS011;1496;51.404;7.232;2022-10-17T15:58:47;13.13;;;4.73;;
2972;SDS011;1496;51.404;7.232;2022-10-17T16:01:46;14.07;;;4.60;;
2972;SDS011;1496;51.404;7.232;2022-10-17T16:04:05;13.87;;;5.40;;
2972;SDS011;1496;51.404;7.232;2022-10-17T16:06:33;17.87;;;4.43;;
2972;SDS011;1496;51.404;7.232;2022-10-17T16:08:58;9.70;;;5.60;;
2972;SDS011;1496;51.404;7.232;2022-10-17T16:11:29;9.63;;;5.13;;
2972;SDS011;1496;51.404;7.232;2022-10-17T16:13:57;13.43;;;4.70;;
2972;SDS011;1496;51.404;7.232;2022-10-17T16:16:25;13.20;;;6.17;;
2972;SDS011;1496;51.404;7.232;2022-10-17T16:18:50;11.43;;;5.20;;
2972;SDS011;1496;51.404;7.232;2022-10-17T16:21:24;12.97;;;5.87;;
2972;SDS011;1496;51.404;7.232;2022-10-17T16:23:52;9.90;;;4.87;;
2972;SDS011;1496;51.404;7.232;2022-10-17T16:26:18;8.83;;;5.47;;
2972;SDS011;1496;51.404;7.232;2022-10-17T16:28:44;16.97;;;6.00;;
2972;SDS011;1496;51.404;7.232;2022-10-17T16:33:47;7.77;;;5.50;;
2972;SDS011;1496;51.404;7.232;2022-10-17T16:36:14;7.40;;;5.70;;
2972;SDS011;1496;51.404;7.232;2022-10-17T16:38:39;9.67;;;5.80;;
2972;SDS011;1496;51.404;7.232;2022-10-17T16:41:16;14.17;;;5.90;;
2972;SDS011;1496;51.404;7.232;2022-10-17T16:43:55;14.40;;;5.50;;
2972;SDS011;1496;51.404;7.232;2022-10-17T16:46:23;8.00;;;5.37;;
2972;SDS011;1496;51.404;7.232;2022-10-17T16:48:49;10.00;;;5.33;;
2972;SDS011;1496;51.404;7.232;2022-10-17T16:51:16;11.60;;;7.07;;
2972;SDS011;1496;51.404;7.232;2022-10-17T16:53:47;15.70;;;6.20;;
2972;SDS011;1496;51.404;7.232;2022-10-17T16:56:17;8.47;;;5.80;;
2972;SDS011;1496;51.404;7.232;2022-10-17T16:58:45;13.80;;;6.23;;
2972;SDS011;1496;51.404;7.232;2022-10-17T17:01:12;14.53;;;7.00;;
2972;SDS011;1496;51.404;7.232;2022-10-17T17:03:40;15.70;;;7.13;;
2972;SDS011;1496;51.404;7.232;2022-10-17T17:06:08;10.10;;;5.90;;
2972;SDS011;1496;51.404;7.232;2022-10-17T17:08:37;7.60;;;6.20;;
2972;SDS011;1496;51.404;7.232;2022-10-17T17:11:06;8.40;;;6.43;;
2972;SDS011;1496;51.404;7.232;2022-10-17T17:13:33;13.07;;;7.23;;
2972;SDS011;1496;51.404;7.232;2022-10-17T17:16:03;11.40;;;6.50;;
2972;SDS011;1496;51.404;7.232;2022-10-17T17:18:33;9.87;;;6.50;;